createdAt,value
2022-12-18T00:02:14.727Z,26.99
2022-12-18T00:05:18.764Z,26.71
2022-12-18T00:08:22.914Z,26.21
2022-12-18T00:11:26.669Z,26.01
2022-12-18T00:14:30.648Z,25.97
2022-12-18T00:17:34.837Z,26.06
2022-12-18T00:20:38.815Z,27.20
2022-12-18T00:23:43.297Z,26.74
2022-12-18T00:26:47.505Z,26.63
2022-12-18T00:29:53.110Z,26.96
2022-12-18T00:32:57.305Z,26.91
2022-12-18T00:36:01.412Z,26.78
2022-12-18T00:39:05.277Z,26.28
2022-12-18T00:42:09.913Z,26.79
2022-12-18T00:45:14.144Z,26.31
2022-12-18T00:48:17.943Z,27.04
2022-12-18T00:51:21.937Z,26.26
2022-12-18T00:54:25.899Z,26.39
2022-12-18T00:57:30.420Z,26.95
2022-12-18T01:00:34.478Z,26.90
2022-12-18T01:03:38.643Z,26.30
2022-12-18T01:06:42.868Z,26.40
2022-12-18T01:09:46.914Z,27.50
2022-12-18T01:12:50.761Z,27.33
2022-12-18T01:15:54.608Z,27.43
2022-12-18T01:18:58.650Z,27.64
2022-12-18T01:22:02.411Z,27.23
2022-12-18T01:25:06.659Z,26.89
2022-12-18T01:28:10.757Z,27.88
2022-12-18T01:31:14.558Z,26.71
2022-12-18T01:34:18.356Z,25.62
2022-12-18T01:37:22.533Z,26.90
2022-12-18T01:40:27.318Z,27.17
2022-12-18T01:43:31.928Z,27.25
2022-12-18T01:46:36.069Z,27.82
2022-12-18T01:49:40.037Z,27.27
2022-12-18T01:52:44.207Z,27.10
2022-12-18T01:55:48.403Z,27.21
2022-12-18T01:58:52.531Z,27.03
2022-12-18T02:01:57.475Z,26.96
2022-12-18T02:05:01.836Z,27.70
2022-12-18T02:08:05.584Z,27.64
2022-12-18T02:11:09.587Z,27.67
2022-12-18T02:14:13.666Z,27.34
2022-12-18T02:17:17.608Z,28.42
2022-12-18T02:20:21.607Z,27.48
2022-12-18T02:23:25.810Z,27.87
2022-12-18T02:26:29.878Z,27.17
2022-12-18T02:29:33.864Z,27.03
2022-12-18T02:32:37.711Z,26.98
2022-12-18T02:35:41.857Z,27.48
2022-12-18T02:38:46.120Z,26.61
2022-12-18T02:41:50.264Z,27.16
2022-12-18T02:44:54.187Z,27.18
2022-12-18T02:47:58.246Z,27.38
2022-12-18T02:51:02.586Z,27.04
2022-12-18T02:54:06.615Z,27.26
2022-12-18T02:57:10.680Z,27.57
2022-12-18T03:00:14.571Z,27.42
2022-12-18T03:03:18.703Z,27.51
2022-12-18T03:06:23.806Z,27.82
2022-12-18T03:09:27.875Z,27.42
2022-12-18T03:12:32.123Z,27.57
2022-12-18T03:15:35.710Z,27.91
2022-12-18T03:18:39.842Z,27.57
2022-12-18T03:21:43.880Z,27.30
2022-12-18T03:24:47.871Z,26.69
2022-12-18T03:27:51.797Z,27.37
2022-12-18T03:30:55.704Z,27.39
2022-12-18T03:34:00.024Z,25.63
2022-12-18T03:37:04.114Z,26.86
2022-12-18T03:40:08.217Z,26.55
2022-12-18T03:43:12.138Z,25.98
2022-12-18T03:46:16.387Z,26.35
2022-12-18T03:49:20.276Z,27.03
2022-12-18T03:52:24.332Z,26.90
2022-12-18T03:55:28.023Z,26.30
2022-12-18T03:58:32.112Z,25.70
2022-12-18T04:01:36.435Z,25.72
2022-12-18T04:04:40.272Z,24.90
2022-12-18T04:07:44.216Z,25.44
2022-12-18T04:10:47.799Z,24.98
2022-12-18T04:13:51.952Z,25.39
2022-12-18T04:16:55.674Z,25.38
2022-12-18T04:20:01.634Z,24.46
2022-12-18T04:23:05.665Z,24.98
2022-12-18T04:26:09.644Z,25.45
2022-12-18T04:29:14.179Z,25.69
2022-12-18T04:32:18.382Z,26.32
2022-12-18T04:35:22.280Z,26.21
2022-12-18T04:38:26.183Z,26.62
2022-12-18T04:41:29.743Z,26.43
2022-12-18T04:44:33.910Z,26.56
2022-12-18T04:47:37.958Z,26.28
2022-12-18T04:50:41.667Z,26.96
2022-12-18T04:53:45.172Z,25.96
2022-12-18T04:56:49.335Z,25.73
2022-12-18T04:59:53.184Z,27.08
2022-12-18T05:02:57.195Z,26.43
2022-12-18T05:06:00.974Z,27.25
2022-12-18T05:09:04.903Z,27.54
2022-12-18T05:12:10.100Z,27.66
2022-12-18T05:15:14.075Z,27.79
2022-12-18T05:18:18.050Z,27.95
2022-12-18T05:21:22.078Z,28.35
2022-12-18T05:24:25.953Z,28.24
2022-12-18T05:27:30.333Z,27.44
2022-12-18T05:30:34.372Z,27.87
2022-12-18T05:33:38.301Z,28.19
2022-12-18T05:36:42.435Z,28.33
2022-12-18T05:39:46.712Z,28.37
2022-12-18T05:42:51.010Z,28.83
2022-12-18T05:45:54.887Z,28.20
2022-12-18T05:48:58.798Z,28.55
2022-12-18T05:52:02.903Z,28.55
2022-12-18T05:55:06.730Z,28.28
2022-12-18T05:58:10.774Z,28.72
2022-12-18T06:01:14.886Z,29.24
2022-12-18T06:04:18.815Z,28.69
2022-12-18T06:07:23.006Z,28.54
2022-12-18T06:10:26.768Z,28.05
2022-12-18T06:13:31.058Z,29.04
2022-12-18T06:16:35.030Z,27.86
2022-12-18T06:19:38.964Z,28.27
2022-12-18T06:22:43.022Z,28.75
2022-12-18T06:25:47.160Z,28.18
2022-12-18T06:28:50.991Z,26.47
2022-12-18T06:31:55.300Z,28.31
2022-12-18T06:34:59.196Z,28.22
2022-12-18T06:38:03.216Z,27.54
2022-12-18T06:41:07.211Z,27.86
2022-12-18T06:44:10.936Z,27.86
2022-12-18T06:47:15.670Z,27.18
2022-12-18T06:50:19.996Z,26.77
2022-12-18T06:53:24.317Z,26.99
2022-12-18T06:56:28.091Z,25.60
2022-12-18T06:59:32.094Z,26.07
2022-12-18T07:02:36.255Z,25.94
2022-12-18T07:05:40.058Z,26.14
2022-12-18T07:08:44.036Z,26.05
2022-12-18T07:11:47.987Z,26.20
2022-12-18T07:14:51.937Z,26.44
2022-12-18T07:17:57.080Z,25.55
2022-12-18T07:21:00.918Z,24.64
2022-12-18T07:24:04.972Z,24.83
2022-12-18T07:27:08.957Z,24.53
2022-12-18T07:30:14.202Z,24.84
2022-12-18T07:33:18.289Z,23.72
2022-12-18T07:36:22.292Z,23.26
2022-12-18T07:39:28.421Z,23.87
2022-12-18T07:42:32.464Z,22.07
2022-12-18T07:45:36.516Z,22.05
2022-12-18T07:48:40.574Z,22.87
2022-12-18T07:51:44.893Z,23.01
2022-12-18T07:54:48.633Z,22.86
2022-12-18T07:57:55.400Z,21.70
2022-12-18T08:01:03.577Z,21.77
2022-12-18T08:04:07.262Z,20.98
2022-12-18T08:07:11.269Z,20.36
2022-12-18T08:10:15.302Z,20.05
2022-12-18T08:13:19.233Z,20.62
2022-12-18T08:16:23.241Z,20.66
2022-12-18T08:19:27.239Z,22.04
2022-12-18T08:22:31.711Z,23.13
2022-12-18T08:25:35.604Z,22.45
2022-12-18T08:28:39.887Z,21.39
2022-12-18T08:31:43.857Z,21.93
2022-12-18T08:34:48.516Z,21.17
2022-12-18T08:37:56.881Z,22.26
2022-12-18T08:41:01.000Z,21.01
2022-12-18T08:44:05.469Z,21.51
2022-12-18T08:47:10.645Z,21.28
2022-12-18T08:50:14.776Z,20.54
2022-12-18T08:53:18.614Z,21.41
2022-12-18T08:56:23.009Z,20.78
2022-12-18T08:59:27.093Z,22.29
2022-12-18T09:02:31.294Z,23.00
2022-12-18T09:05:35.424Z,22.26
2022-12-18T09:08:39.797Z,22.56
2022-12-18T09:11:44.042Z,22.03
2022-12-18T09:14:47.943Z,21.90
2022-12-18T09:17:51.878Z,22.38
2022-12-18T09:20:55.692Z,21.44
2022-12-18T09:23:59.634Z,21.27
2022-12-18T09:27:03.544Z,22.00
2022-12-18T09:30:07.359Z,23.71
2022-12-18T09:33:11.343Z,25.10
2022-12-18T09:36:15.305Z,22.46
2022-12-18T09:39:19.244Z,21.23
2022-12-18T09:42:27.171Z,20.46
2022-12-18T09:45:31.096Z,19.59
2022-12-18T09:48:34.850Z,19.12
2022-12-18T09:51:38.977Z,19.61
2022-12-18T09:54:42.986Z,21.30
2022-12-18T09:57:47.019Z,21.60
2022-12-18T10:00:50.944Z,21.04
2022-12-18T10:03:55.130Z,22.42
2022-12-18T10:07:04.320Z,20.23
2022-12-18T10:10:11.320Z,19.82
2022-12-18T10:13:15.076Z,19.61
2022-12-18T10:16:21.058Z,19.97
2022-12-18T10:19:25.137Z,20.50
2022-12-18T10:22:29.035Z,19.77
2022-12-18T10:25:33.155Z,19.40
2022-12-18T10:28:37.249Z,19.85
2022-12-18T10:31:41.455Z,20.26
2022-12-18T10:34:49.501Z,21.32
2022-12-18T10:37:57.661Z,22.05
2022-12-18T10:41:02.020Z,22.29
2022-12-18T10:44:06.155Z,22.81
2022-12-18T10:47:11.922Z,22.40
2022-12-18T10:50:16.045Z,22.03
2022-12-18T10:53:19.807Z,22.17
2022-12-18T10:56:25.014Z,21.53
2022-12-18T10:59:28.953Z,21.91
2022-12-18T11:02:32.969Z,21.93
2022-12-18T11:05:36.830Z,21.55
2022-12-18T11:08:41.356Z,22.00
2022-12-18T11:11:45.643Z,21.92
2022-12-18T11:14:50.756Z,21.39
2022-12-18T11:17:54.786Z,21.32
2022-12-18T11:20:59.116Z,21.91
2022-12-18T11:24:03.189Z,20.57
2022-12-18T11:27:07.185Z,20.83
2022-12-18T11:30:10.892Z,20.84
2022-12-18T11:33:14.872Z,20.60
2022-12-18T11:36:18.648Z,20.26
2022-12-18T11:39:22.695Z,20.69
2022-12-18T11:42:27.314Z,20.39
2022-12-18T11:45:30.842Z,20.30
2022-12-18T11:48:34.695Z,21.23
2022-12-18T11:51:38.407Z,20.44
2022-12-18T11:54:42.319Z,20.70
2022-12-18T11:57:46.729Z,20.31
2022-12-18T12:00:50.715Z,20.62
2022-12-18T12:03:54.729Z,20.21
2022-12-18T12:07:03.133Z,20.32
2022-12-18T12:10:07.818Z,19.79
2022-12-18T12:13:11.859Z,20.45
2022-12-18T12:16:15.820Z,19.64
2022-12-18T12:19:25.874Z,20.00
2022-12-18T12:22:29.613Z,19.85
2022-12-18T12:25:33.537Z,19.26
2022-12-18T12:28:37.664Z,19.69
2022-12-18T12:31:42.093Z,20.24
2022-12-18T12:34:51.704Z,19.56
2022-12-18T12:37:57.861Z,19.48
2022-12-18T12:41:03.410Z,19.67
2022-12-18T12:44:08.534Z,20.32
2022-12-18T12:47:12.524Z,20.18
2022-12-18T12:50:17.359Z,20.11
2022-12-18T12:53:21.158Z,19.85
2022-12-18T12:56:25.842Z,20.30
2022-12-18T12:59:33.022Z,19.84
2022-12-18T13:02:38.817Z,20.05
2022-12-18T13:05:43.240Z,20.47
2022-12-18T13:08:47.460Z,19.79
2022-12-18T13:11:57.871Z,20.20
2022-12-18T13:15:08.755Z,20.07
2022-12-18T13:18:15.565Z,19.61
2022-12-18T13:21:20.087Z,20.08
2022-12-18T13:24:25.022Z,19.46
2022-12-18T13:27:28.988Z,20.30
2022-12-18T13:30:33.537Z,20.74
2022-12-18T13:33:50.766Z,20.61
2022-12-18T13:37:01.642Z,21.20
2022-12-18T13:40:05.870Z,20.51
2022-12-18T13:43:10.021Z,20.69
2022-12-18T13:46:14.139Z,20.82
2022-12-18T13:49:19.906Z,20.69
2022-12-18T13:52:23.945Z,20.19
2022-12-18T13:55:28.074Z,21.05
2022-12-18T13:58:32.010Z,20.91
2022-12-18T14:01:36.040Z,20.93
2022-12-18T14:04:39.972Z,21.51
2022-12-18T14:07:46.530Z,20.65
2022-12-18T14:10:55.228Z,21.05
2022-12-18T14:13:59.367Z,20.31
2022-12-18T14:17:03.209Z,21.09
2022-12-18T14:20:07.116Z,20.59
2022-12-18T14:23:11.216Z,20.43
2022-12-18T14:26:15.346Z,20.66
2022-12-18T14:29:19.266Z,20.85
2022-12-18T14:32:23.657Z,19.94
2022-12-18T14:35:27.739Z,20.72
2022-12-18T14:38:32.372Z,21.19
2022-12-18T14:41:36.226Z,20.92
2022-12-18T14:45:05.013Z,20.33
2022-12-18T14:48:03.736Z,20.50
2022-12-18T14:51:07.557Z,20.79
2022-12-18T14:54:11.570Z,21.39
2022-12-18T14:57:15.723Z,20.76
2022-12-18T15:00:20.975Z,22.04
2022-12-18T15:03:24.849Z,20.65
2022-12-18T15:06:30.080Z,21.22
2022-12-18T15:09:34.233Z,20.96
2022-12-18T15:12:38.111Z,20.89
2022-12-18T15:15:42.398Z,21.18
2022-12-18T15:18:46.265Z,21.72
2022-12-18T15:21:50.347Z,22.89
2022-12-18T15:24:54.284Z,24.33
2022-12-18T15:27:58.383Z,24.29
2022-12-18T15:31:02.458Z,25.04
2022-12-18T15:34:06.332Z,25.92
2022-12-18T15:37:10.667Z,26.99
2022-12-18T15:40:14.624Z,25.43
2022-12-18T15:43:19.745Z,25.91
2022-12-18T15:46:23.784Z,27.05
2022-12-18T15:49:27.553Z,26.55
2022-12-18T15:52:31.687Z,26.91
2022-12-18T15:55:35.769Z,26.96
2022-12-18T15:58:40.322Z,27.06
2022-12-18T16:01:44.065Z,27.41
2022-12-18T16:04:48.008Z,27.40
2022-12-18T16:07:52.101Z,28.14
2022-12-18T16:10:56.178Z,27.67
2022-12-18T16:14:00.368Z,27.34
2022-12-18T16:17:04.102Z,27.02
2022-12-18T16:20:08.257Z,27.93
2022-12-18T16:23:12.469Z,27.26
2022-12-18T16:26:16.507Z,28.60
2022-12-18T16:29:20.654Z,26.76
2022-12-18T16:32:24.811Z,27.51
2022-12-18T16:35:28.646Z,27.14
2022-12-18T16:38:32.996Z,27.69
2022-12-18T16:41:37.088Z,26.93
2022-12-18T16:44:40.989Z,27.30
2022-12-18T16:47:45.124Z,29.21
2022-12-18T16:50:49.103Z,28.63
2022-12-18T16:53:53.282Z,27.39
2022-12-18T16:56:57.303Z,28.01
2022-12-18T17:00:05.442Z,27.49
2022-12-18T17:03:09.760Z,27.52
2022-12-18T17:06:13.478Z,28.08
2022-12-18T17:09:17.760Z,27.94
2022-12-18T17:12:21.934Z,27.58
2022-12-18T17:15:25.899Z,27.27
2022-12-18T17:18:30.015Z,27.04
2022-12-18T17:21:34.016Z,27.34
2022-12-18T17:24:38.124Z,26.84
2022-12-18T17:27:42.143Z,26.39
2022-12-18T17:30:46.091Z,26.63
2022-12-18T17:33:50.096Z,26.54
2022-12-18T17:36:54.041Z,26.31
2022-12-18T17:39:58.168Z,25.42
2022-12-18T17:43:02.126Z,27.02
2022-12-18T17:46:06.185Z,26.41
2022-12-18T17:49:13.333Z,27.03
2022-12-18T17:52:17.322Z,26.72
2022-12-18T17:55:21.351Z,26.99
2022-12-18T17:58:25.357Z,26.51
2022-12-18T18:01:29.406Z,25.03
2022-12-18T18:04:33.317Z,26.05
2022-12-18T18:07:37.350Z,26.57
2022-12-18T18:10:41.235Z,25.96
2022-12-18T18:13:47.164Z,26.35
2022-12-18T18:16:51.171Z,24.74
2022-12-18T18:19:55.324Z,25.68
2022-12-18T18:22:59.482Z,26.63
2022-12-18T18:26:03.452Z,26.67
2022-12-18T18:29:07.983Z,31.01
2022-12-18T18:32:12.608Z,31.29
2022-12-18T18:35:45.131Z,31.24
2022-12-18T18:38:44.121Z,34.19
2022-12-18T18:41:51.027Z,34.19
2022-12-18T18:44:54.960Z,34.84
2022-12-18T18:47:59.687Z,32.49
2022-12-18T18:51:03.800Z,30.73
2022-12-18T18:54:07.875Z,29.97
2022-12-18T18:57:20.399Z,31.79
2022-12-18T19:00:24.386Z,31.88
2022-12-18T19:03:28.420Z,33.65
2022-12-18T19:06:32.362Z,32.55
2022-12-18T19:09:37.394Z,32.46
2022-12-18T19:12:41.364Z,32.13
2022-12-18T19:15:45.364Z,31.68
2022-12-18T19:18:49.353Z,28.48
2022-12-18T19:21:53.274Z,27.29
2022-12-18T19:24:57.375Z,27.21
2022-12-18T19:28:01.464Z,26.41
2022-12-18T19:31:05.359Z,25.82
2022-12-18T19:34:09.360Z,27.88
2022-12-18T19:37:13.514Z,28.09
2022-12-18T19:40:17.659Z,26.88
2022-12-18T19:43:21.728Z,26.56
2022-12-18T19:46:25.810Z,28.21
2022-12-18T19:49:29.746Z,28.02
2022-12-18T19:52:34.323Z,27.82
2022-12-18T19:55:38.409Z,27.89
2022-12-18T19:58:42.910Z,29.56
2022-12-18T20:01:47.182Z,29.15
2022-12-18T20:04:51.332Z,27.87
2022-12-18T20:07:55.373Z,27.98
2022-12-18T20:10:59.255Z,27.98
2022-12-18T20:14:03.020Z,29.21
2022-12-18T20:17:06.960Z,28.47
2022-12-18T20:20:11.072Z,28.75
2022-12-18T20:23:15.271Z,27.44
2022-12-18T20:26:19.421Z,27.79
2022-12-18T20:29:23.340Z,26.63
2022-12-18T20:32:27.328Z,27.73
2022-12-18T20:35:33.571Z,26.46
2022-12-18T20:38:37.658Z,25.87
2022-12-18T20:41:41.674Z,26.97
2022-12-18T20:44:45.540Z,25.90
2022-12-18T20:47:49.670Z,25.89
2022-12-18T20:50:53.626Z,26.24
2022-12-18T20:53:57.787Z,27.22
2022-12-18T20:57:01.835Z,26.38
2022-12-18T21:00:05.657Z,26.12
2022-12-18T21:03:09.842Z,25.91
2022-12-18T21:06:14.126Z,26.27
2022-12-18T21:09:17.997Z,27.16
2022-12-18T21:12:21.987Z,28.00
2022-12-18T21:15:28.790Z,27.70
2022-12-18T21:18:33.067Z,27.82
2022-12-18T21:21:38.710Z,28.99
2022-12-18T21:24:43.379Z,28.24
2022-12-18T21:27:47.369Z,29.36
2022-12-18T21:30:51.259Z,29.12
2022-12-18T21:33:55.852Z,28.38
2022-12-18T21:37:05.876Z,28.84
2022-12-18T21:40:09.993Z,29.89
2022-12-18T21:43:16.074Z,29.98
2022-12-18T21:46:21.959Z,30.66
2022-12-18T21:49:26.004Z,30.28
2022-12-18T21:52:32.053Z,32.56
2022-12-18T21:55:38.037Z,31.03
2022-12-18T21:58:56.637Z,32.80
2022-12-18T22:02:01.375Z,31.43
2022-12-18T22:05:05.396Z,30.25
2022-12-18T22:08:09.942Z,30.57
2022-12-18T22:11:13.866Z,31.11
2022-12-18T22:14:18.734Z,32.54
2022-12-18T22:17:22.728Z,32.87
2022-12-18T22:20:26.913Z,31.07
2022-12-18T22:23:31.004Z,33.51
2022-12-18T22:26:39.455Z,34.10
2022-12-18T22:29:43.925Z,33.35
2022-12-18T22:32:47.950Z,40.48
2022-12-18T22:35:51.864Z,37.80
2022-12-18T22:38:56.131Z,33.35
2022-12-18T22:42:00.159Z,32.08
2022-12-18T22:45:04.008Z,32.87
2022-12-18T22:48:07.906Z,32.11
2022-12-18T22:51:11.811Z,31.40
2022-12-18T22:54:15.814Z,31.48
2022-12-18T22:57:21.951Z,31.37
2022-12-18T23:00:25.544Z,31.18
2022-12-18T23:03:29.667Z,31.29
2022-12-18T23:06:33.643Z,31.11
2022-12-18T23:09:37.749Z,30.20
2022-12-18T23:12:41.792Z,30.26
2022-12-18T23:15:45.732Z,30.17
2022-12-18T23:18:50.032Z,29.98
2022-12-18T23:21:54.885Z,31.28
2022-12-18T23:25:01.226Z,29.60
2022-12-18T23:28:05.234Z,30.24
2022-12-18T23:31:09.137Z,30.16
2022-12-18T23:34:13.019Z,30.71
2022-12-18T23:37:35.296Z,30.30
2022-12-18T23:40:40.958Z,31.02
2022-12-18T23:43:44.874Z,29.41
2022-12-18T23:46:50.862Z,29.31
2022-12-18T23:49:54.977Z,28.59
2022-12-18T23:53:05.014Z,28.62
2022-12-18T23:56:09.687Z,28.17
2022-12-18T23:59:14.065Z,29.51
